sensor_id;sensor_type;location;lat;lon;timestamp;temperature;humidity
49861;DHT22;35761;48.826;9.238;2022-11-27T00:01:33;3.80;65.30
49861;DHT22;35761;48.826;9.238;2022-11-27T00:04:03;3.80;65.40
49861;DHT22;35761;48.826;9.238;2022-11-27T00:06:32;3.80;65.20
49861;DHT22;35761;48.826;9.238;2022-11-27T00:09:04;3.80;65.00
49861;DHT22;35761;48.826;9.238;2022-11-27T00:11:34;3.70;64.90
49861;DHT22;35761;48.826;9.238;2022-11-27T00:14:05;3.70;65.00
49861;DHT22;35761;48.826;9.238;2022-11-27T00:16:34;3.70;65.30
49861;DHT22;35761;48.826;9.238;2022-11-27T00:19:03;3.70;65.50
49861;DHT22;35761;48.826;9.238;2022-11-27T00:21:34;3.70;65.70
49861;DHT22;35761;48.826;9.238;2022-11-27T00:24:07;3.70;65.80
49861;DHT22;35761;48.826;9.238;2022-11-27T00:26:37;3.70;65.70
49861;DHT22;35761;48.826;9.238;2022-11-27T00:29:05;3.70;65.60
49861;DHT22;35761;48.826;9.238;2022-11-27T00:31:37;3.70;65.40
49861;DHT22;35761;48.826;9.238;2022-11-27T00:34:07;3.70;65.40
49861;DHT22;35761;48.826;9.238;2022-11-27T00:36:36;3.60;65.50
49861;DHT22;35761;48.826;9.238;2022-11-27T00:39:09;3.60;65.70
49861;DHT22;35761;48.826;9.238;2022-11-27T00:41:38;3.60;66.10
49861;DHT22;35761;48.826;9.238;2022-11-27T00:44:06;3.60;66.20
49861;DHT22;35761;48.826;9.238;2022-11-27T00:46:35;3.60;66.00
49861;DHT22;35761;48.826;9.238;2022-11-27T00:49:04;3.60;65.90
49861;DHT22;35761;48.826;9.238;2022-11-27T00:51:33;3.50;66.10
49861;DHT22;35761;48.826;9.238;2022-11-27T00:54:02;3.60;66.20
49861;DHT22;35761;48.826;9.238;2022-11-27T00:56:34;3.50;66.40
49861;DHT22;35761;48.826;9.238;2022-11-27T00:59:05;3.60;66.20
49861;DHT22;35761;48.826;9.238;2022-11-27T01:01:36;3.60;66.00
49861;DHT22;35761;48.826;9.238;2022-11-27T01:04:09;3.50;65.80
49861;DHT22;35761;48.826;9.238;2022-11-27T01:06:39;3.40;66.00
49861;DHT22;35761;48.826;9.238;2022-11-27T01:09:09;3.40;66.80
49861;DHT22;35761;48.826;9.238;2022-11-27T01:11:40;3.40;66.90
49861;DHT22;35761;48.826;9.238;2022-11-27T01:14:12;3.30;66.60
49861;DHT22;35761;48.826;9.238;2022-11-27T01:16:42;3.30;66.60
49861;DHT22;35761;48.826;9.238;2022-11-27T01:19:11;3.20;66.70
49861;DHT22;35761;48.826;9.238;2022-11-27T01:21:41;3.10;67.00
49861;DHT22;35761;48.826;9.238;2022-11-27T01:24:11;3.10;67.10
49861;DHT22;35761;48.826;9.238;2022-11-27T01:26:42;3.10;67.00
49861;DHT22;35761;48.826;9.238;2022-11-27T01:29:11;3.00;66.20
49861;DHT22;35761;48.826;9.238;2022-11-27T01:31:40;3.00;66.10
49861;DHT22;35761;48.826;9.238;2022-11-27T01:34:13;3.00;66.00
49861;DHT22;35761;48.826;9.238;2022-11-27T01:36:43;3.00;65.60
49861;DHT22;35761;48.826;9.238;2022-11-27T01:39:14;2.90;65.60
49861;DHT22;35761;48.826;9.238;2022-11-27T01:41:48;2.80;65.20
49861;DHT22;35761;48.826;9.238;2022-11-27T01:44:49;2.80;65.30
49861;DHT22;35761;48.826;9.238;2022-11-27T01:47:36;2.80;65.80
49861;DHT22;35761;48.826;9.238;2022-11-27T01:50:11;2.70;66.30
49861;DHT22;35761;48.826;9.238;2022-11-27T01:52:43;2.60;67.20
49861;DHT22;35761;48.826;9.238;2022-11-27T01:55:20;2.60;67.80
49861;DHT22;35761;48.826;9.238;2022-11-27T01:57:58;2.50;68.80
49861;DHT22;35761;48.826;9.238;2022-11-27T02:00:28;2.40;69.50
49861;DHT22;35761;48.826;9.238;2022-11-27T02:02:56;2.40;70.10
49861;DHT22;35761;48.826;9.238;2022-11-27T02:05:27;2.40;70.60
49861;DHT22;35761;48.826;9.238;2022-11-27T02:07:56;2.40;70.80
49861;DHT22;35761;48.826;9.238;2022-11-27T02:10:34;2.40;70.80
49861;DHT22;35761;48.826;9.238;2022-11-27T02:13:11;2.50;70.90
49861;DHT22;35761;48.826;9.238;2022-11-27T02:15:45;2.50;70.80
49861;DHT22;35761;48.826;9.238;2022-11-27T02:18:22;2.50;70.50
49861;DHT22;35761;48.826;9.238;2022-11-27T02:21:03;2.50;70.30
49861;DHT22;35761;48.826;9.238;2022-11-27T02:24:00;2.50;70.50
49861;DHT22;35761;48.826;9.238;2022-11-27T02:27:00;2.40;70.40
49861;DHT22;35761;48.826;9.238;2022-11-27T02:29:49;2.40;70.90
49861;DHT22;35761;48.826;9.238;2022-11-27T02:32:26;2.30;71.30
49861;DHT22;35761;48.826;9.238;2022-11-27T02:35:01;2.30;71.80
49861;DHT22;35761;48.826;9.238;2022-11-27T02:37:33;2.30;71.80
49861;DHT22;35761;48.826;9.238;2022-11-27T02:40:07;2.30;71.80
49861;DHT22;35761;48.826;9.238;2022-11-27T02:42:40;2.30;71.60
49861;DHT22;35761;48.826;9.238;2022-11-27T02:45:16;2.30;71.40
49861;DHT22;35761;48.826;9.238;2022-11-27T02:47:47;2.30;71.60
49861;DHT22;35761;48.826;9.238;2022-11-27T02:50:19;2.20;71.80
49861;DHT22;35761;48.826;9.238;2022-11-27T02:52:51;2.20;72.10
49861;DHT22;35761;48.826;9.238;2022-11-27T02:55:24;2.20;72.30
49861;DHT22;35761;48.826;9.238;2022-11-27T02:57:55;2.20;72.40
49861;DHT22;35761;48.826;9.238;2022-11-27T03:00:26;2.10;72.60
49861;DHT22;35761;48.826;9.238;2022-11-27T03:03:03;2.10;72.70
49861;DHT22;35761;48.826;9.238;2022-11-27T03:05:37;2.10;72.70
49861;DHT22;35761;48.826;9.238;2022-11-27T03:08:10;2.10;72.90
49861;DHT22;35761;48.826;9.238;2022-11-27T03:10:47;2.10;73.10
49861;DHT22;35761;48.826;9.238;2022-11-27T03:13:18;2.00;73.20
49861;DHT22;35761;48.826;9.238;2022-11-27T03:15:56;2.00;73.50
49861;DHT22;35761;48.826;9.238;2022-11-27T03:18:35;2.00;73.80
49861;DHT22;35761;48.826;9.238;2022-11-27T03:21:13;2.00;73.80
49861;DHT22;35761;48.826;9.238;2022-11-27T03:23:46;2.00;73.90
49861;DHT22;35761;48.826;9.238;2022-11-27T03:26:14;2.00;73.70
49861;DHT22;35761;48.826;9.238;2022-11-27T03:28:44;2.00;73.50
49861;DHT22;35761;48.826;9.238;2022-11-27T03:31:15;1.90;73.40
49861;DHT22;35761;48.826;9.238;2022-11-27T03:33:43;1.90;73.20
49861;DHT22;35761;48.826;9.238;2022-11-27T03:36:13;1.90;73.20
49861;DHT22;35761;48.826;9.238;2022-11-27T03:38:44;1.90;73.00
49861;DHT22;35761;48.826;9.238;2022-11-27T03:41:19;2.00;72.80
49861;DHT22;35761;48.826;9.238;2022-11-27T03:44:08;1.90;72.70
49861;DHT22;35761;48.826;9.238;2022-11-27T03:46:49;1.90;72.80
49861;DHT22;35761;48.826;9.238;2022-11-27T03:49:27;1.90;72.80
49861;DHT22;35761;48.826;9.238;2022-11-27T03:52:07;1.90;72.70
49861;DHT22;35761;48.826;9.238;2022-11-27T03:54:49;1.90;72.50
49861;DHT22;35761;48.826;9.238;2022-11-27T03:57:29;1.90;73.10
49861;DHT22;35761;48.826;9.238;2022-11-27T04:00:02;1.90;72.30
49861;DHT22;35761;48.826;9.238;2022-11-27T04:02:41;1.80;72.10
49861;DHT22;35761;48.826;9.238;2022-11-27T04:05:12;1.80;72.10
49861;DHT22;35761;48.826;9.238;2022-11-27T04:07:41;1.80;72.20
49861;DHT22;35761;48.826;9.238;2022-11-27T04:10:11;1.80;72.20
49861;DHT22;35761;48.826;9.238;2022-11-27T04:12:39;1.80;72.20
49861;DHT22;35761;48.826;9.238;2022-11-27T04:15:09;1.80;72.20
49861;DHT22;35761;48.826;9.238;2022-11-27T04:17:39;1.80;72.10
49861;DHT22;35761;48.826;9.238;2022-11-27T04:20:11;1.70;71.90
49861;DHT22;35761;48.826;9.238;2022-11-27T04:22:40;1.70;71.90
49861;DHT22;35761;48.826;9.238;2022-11-27T04:25:09;1.70;71.80
49861;DHT22;35761;48.826;9.238;2022-11-27T04:27:37;1.70;71.80
49861;DHT22;35761;48.826;9.238;2022-11-27T04:30:06;1.60;72.00
49861;DHT22;35761;48.826;9.238;2022-11-27T04:32:35;1.60;71.30
49861;DHT22;35761;48.826;9.238;2022-11-27T04:35:06;1.60;71.30
49861;DHT22;35761;48.826;9.238;2022-11-27T04:37:34;1.60;71.30
49861;DHT22;35761;48.826;9.238;2022-11-27T04:40:04;1.60;71.30
49861;DHT22;35761;48.826;9.238;2022-11-27T04:42:33;1.60;71.30
49861;DHT22;35761;48.826;9.238;2022-11-27T04:45:02;1.60;71.40
49861;DHT22;35761;48.826;9.238;2022-11-27T04:47:30;1.60;71.40
49861;DHT22;35761;48.826;9.238;2022-11-27T04:49:59;1.60;71.10
49861;DHT22;35761;48.826;9.238;2022-11-27T04:52:28;1.60;70.80
49861;DHT22;35761;48.826;9.238;2022-11-27T04:54:57;1.60;70.50
49861;DHT22;35761;48.826;9.238;2022-11-27T04:57:26;1.60;70.00
49861;DHT22;35761;48.826;9.238;2022-11-27T04:59:55;1.60;69.40
49861;DHT22;35761;48.826;9.238;2022-11-27T05:02:23;1.60;69.00
49861;DHT22;35761;48.826;9.238;2022-11-27T05:04:52;1.60;68.80
49861;DHT22;35761;48.826;9.238;2022-11-27T05:07:20;1.60;68.60
49861;DHT22;35761;48.826;9.238;2022-11-27T05:09:50;1.50;68.40
49861;DHT22;35761;48.826;9.238;2022-11-27T05:12:19;1.50;68.20
49861;DHT22;35761;48.826;9.238;2022-11-27T05:14:47;1.50;68.00
49861;DHT22;35761;48.826;9.238;2022-11-27T05:17:16;1.50;68.00
49861;DHT22;35761;48.826;9.238;2022-11-27T05:19:44;1.50;67.90
49861;DHT22;35761;48.826;9.238;2022-11-27T05:22:12;1.50;68.20
49861;DHT22;35761;48.826;9.238;2022-11-27T05:24:41;1.40;67.10
49861;DHT22;35761;48.826;9.238;2022-11-27T05:27:10;1.40;67.00
49861;DHT22;35761;48.826;9.238;2022-11-27T05:29:39;1.40;66.80
49861;DHT22;35761;48.826;9.238;2022-11-27T05:32:07;1.40;67.60
49861;DHT22;35761;48.826;9.238;2022-11-27T05:34:36;1.40;67.00
49861;DHT22;35761;48.826;9.238;2022-11-27T05:37:04;1.30;67.10
49861;DHT22;35761;48.826;9.238;2022-11-27T05:39:32;1.30;67.00
49861;DHT22;35761;48.826;9.238;2022-11-27T05:42:01;1.20;67.00
49861;DHT22;35761;48.826;9.238;2022-11-27T05:44:31;1.20;67.60
49861;DHT22;35761;48.826;9.238;2022-11-27T05:46:59;1.20;68.10
49861;DHT22;35761;48.826;9.238;2022-11-27T05:49:27;1.20;68.30
49861;DHT22;35761;48.826;9.238;2022-11-27T05:51:56;1.20;68.70
49861;DHT22;35761;48.826;9.238;2022-11-27T05:54:24;1.10;69.20
49861;DHT22;35761;48.826;9.238;2022-11-27T05:56:53;1.10;69.50
49861;DHT22;35761;48.826;9.238;2022-11-27T05:59:21;1.10;69.60
49861;DHT22;35761;48.826;9.238;2022-11-27T06:01:51;1.10;69.70
49861;DHT22;35761;48.826;9.238;2022-11-27T06:04:19;1.10;69.70
49861;DHT22;35761;48.826;9.238;2022-11-27T06:06:48;1.00;69.80
49861;DHT22;35761;48.826;9.238;2022-11-27T06:09:16;0.90;70.30
49861;DHT22;35761;48.826;9.238;2022-11-27T06:11:45;0.90;70.70
49861;DHT22;35761;48.826;9.238;2022-11-27T06:14:14;0.80;71.00
49861;DHT22;35761;48.826;9.238;2022-11-27T06:16:42;0.80;71.70
49861;DHT22;35761;48.826;9.238;2022-11-27T06:19:12;0.70;72.40
49861;DHT22;35761;48.826;9.238;2022-11-27T06:21:41;0.70;72.90
49861;DHT22;35761;48.826;9.238;2022-11-27T06:24:12;0.70;73.10
49861;DHT22;35761;48.826;9.238;2022-11-27T06:26:41;0.70;73.10
49861;DHT22;35761;48.826;9.238;2022-11-27T06:29:09;0.70;73.00
49861;DHT22;35761;48.826;9.238;2022-11-27T06:31:38;0.70;72.80
49861;DHT22;35761;48.826;9.238;2022-11-27T06:34:07;0.70;72.50
49861;DHT22;35761;48.826;9.238;2022-11-27T06:36:38;0.70;72.20
49861;DHT22;35761;48.826;9.238;2022-11-27T06:39:09;0.70;72.80
49861;DHT22;35761;48.826;9.238;2022-11-27T06:41:38;0.70;73.10
49861;DHT22;35761;48.826;9.238;2022-11-27T06:44:07;0.70;73.30
49861;DHT22;35761;48.826;9.238;2022-11-27T06:46:36;0.70;73.30
49861;DHT22;35761;48.826;9.238;2022-11-27T06:49:04;0.70;73.20
